• Join FlightAware (Why Join?)
  • Login
  • US Flag 
12:51AM EST


 

Airport Tracker/Info


-or-


 

Live Flight TrackerFlight Track Log ✈ N2317S ✈ 25-Apr-2013 ✈ KBTV - KHFD

Flight Track Log - Related Links

Times and Time Zones

All times are in EDT time to prevent confusion due to time zone crossing. See the N2317S flight status page for this flight to view local times or setup timezone preferences in your user account.

Time Position Orientation Groundspeed Altitude Reporting Facility
EDT Latitude Longitude Course Direction KTS MPH feet Rate Location/Type
09:21AM 44.2325 -73.1040 175° South  Level FlightAware Approximate
09:21AM 44.2961 -73.2175 175° South 131 151 6,600  Level Boston Center
09:22AM 44.1934 -73.0978 167° South  Level FlightAware Approximate
09:22AM 44.2669 -73.2142 175° South 138 159 7,500  Level Boston Center
09:23AM 44.1550 -73.0850 167° South  Level FlightAware Approximate
09:23AM 44.2339 -73.2050 169° South 130 150 8,400  Level Boston Center
09:24AM 44.1166 -73.0722 167° South  Level FlightAware Approximate
09:24AM 44.1983 -73.1989 173° South 125 144 9,300  Level Boston Center
09:25AM 44.0777 -73.0642 175° South  Level FlightAware Approximate
09:25AM 44.1608 -73.1925 173° South 131 151 10,000  Level Boston Center
09:26AM 44.0384 -73.0598 175° South  Level FlightAware Approximate
09:26AM 44.1047 -73.1803 171° South 163 188 10,100  Level Boston Center
09:27AM 44.0528 -73.1653 168° South 186 214 10,000 -60 Descending Boston Center
09:29AM 43.9967 -73.1528 171° South 196 226 10,000  Level Boston Center
09:30AM 43.9361 -73.1406 172° South 196 226 10,000  Level Boston Center
09:31AM 43.8864 -73.1286 170° South 196 226 10,000  Level Boston Center
09:32AM 43.8364 -73.1164 170° South 186 214 10,000  Level Boston Center
09:33AM 43.7906 -73.1044 169° South 181 208 10,000  Level Boston Center
09:34AM 43.7406 -73.0953 172° South 181 208 10,000  Level Boston Center
09:35AM 43.6928 -73.0833 170° South 181 208 10,000 -180 Level Boston Center
09:36AM 43.6428 -73.0742 172° South 181 208 9,700 -180 Descending Boston Center
09:37AM 43.5928 -73.0622 170° South 181 208 9,700  Level Boston Center
09:38AM 43.5428 -73.0531 172° South 181 208 9,800  Climbing Boston Center
09:39AM 43.4931 -73.0411 170° South 181 208 9,700 -60 Descending Boston Center
09:40AM 43.4450 -73.0292 170° South 181 208 9,700  Level Boston Center
09:41AM 43.3950 -73.0172 170° South 181 208 9,700  Level Boston Center
09:42AM 43.3536 -73.0083 171° South 177 204 9,700  Level Boston Center
09:43AM 43.3078 -72.9964 169° South 170 196 9,800  Climbing Boston Center
09:44AM 43.2597 -72.9875 172° South 165 190 9,700 -60 Descending Boston Center
09:45AM 43.2139 -72.9786 172° South 165 190 9,700  Level Boston Center
09:46AM 43.1703 -72.9667 169° South 165 190 9,800 120 Climbing Boston Center
09:47AM 43.1244 -72.9550 169° South 165 190 10,000 60 Climbing Boston Center
09:48AM 43.0808 -72.9461 172° South 165 190 10,000  Level Boston Center
09:49AM 43.0350 -72.9372 172° South 165 190 10,000  Level Boston Center
09:50AM 42.9911 -72.9283 172° South 165 190 10,000  Level Boston Center
09:51AM 42.9475 -72.9167 169° South 165 190 10,000  Level Boston Center
09:52AM 42.9039 -72.9078 172° South 160 184 10,000  Level Boston Center
09:53AM 42.8600 -72.8989 172° South 165 190 10,000  Level Boston Center
09:54AM 42.8164 -72.8903 172° South 165 190 10,000  Level Boston Center
09:54AM 42.7997 -72.8844 166° South 159 183 10,000 60 Level Boston Center
09:55AM 42.7747 -72.8786 170° South 160 184 10,100 60 Climbing Boston Center
09:55AM 42.7517 -72.8728 169° South 153 176 10,100 -120 Level Boston Center
09:56AM 42.7308 -72.8697 174° South 160 184 10,000  Descending Boston Center
09:56AM 42.7122 -72.8639 167° South 158 182 10,100  Climbing Boston Center
09:57AM 42.6872 -72.8608 175° South 160 184 10,000 -120 Descending Boston Center
09:57AM 42.6664 -72.8581 174° South 161 185 10,000  Level Boston Center
09:58AM 42.6539 -72.8522 161° South 160 184 10,000 60 Level Boston Center
09:58AM 42.6228 -72.8464 172° South 159 183 10,100  Climbing Boston Center
09:59AM 42.5997 -72.8378 165° South 165 190 10,000 -120 Descending Boston Center
10:00AM 42.5561 -72.8292 172° South 165 190 10,000  Level Boston Center
10:00AM 42.5206 -72.8261 176° South 156 180 10,000 60 Level Boston Center
10:01AM 42.4956 -72.8175 166° South 154 177 10,100  Climbing Boston Center
10:02AM 42.4706 -72.8089 166° South 160 184 10,000 -300 Descending Boston Center
10:02AM 42.4519 -72.8086 179° South 156 180 9,800 -420 Descending Boston Center
10:03AM 42.4289 -72.8003 165° South 160 184 9,600 -360 Descending Boston Center
10:03AM 42.4019 -72.7972 175° South 157 181 9,400 -420 Descending Boston Center
10:04AM 42.3872 -72.7914 164° South 160 184 9,200 -480 Descending Boston Center
10:04AM 42.3622 -72.7886 175° South 155 178 9,000 -420 Descending Boston Center
10:05AM 42.3500 -72.7828 161° South 160 184 8,800 -420 Descending Boston Center
10:05AM 42.3164 -72.7797 176° South 153 176 8,600 -420 Descending Boston Center
10:06AM 42.3000 -72.7714 159° South 160 184 8,400 -600 Descending Boston Center
10:06AM 42.2769 -72.7711 179° South 155 178 8,100 -420 Descending Boston Center
10:07AM 42.2625 -72.7656 164° South 160 184 8,000 -300 Descending Boston Center
10:07AM 42.2311 -72.7625 176° South 157 181 7,800 -420 Descending Boston Center
10:08AM 42.2144 -72.7542 160° South 160 184 7,600 -540 Descending Boston Center
10:08AM 42.1833 -72.7511 176° South 162 186 7,300 -540 Descending Boston Center
10:09AM 42.1750 -72.7456 154° Southeast 160 184 7,100 -480 Descending Boston Center
10:09AM 42.1394 -72.7200 152° Southeast 174 200 6,800 -420 Descending Boston Center
10:10AM 42.1000 -72.6750 140° Southeast 179 206 6,400 -420 Descending Boston Center
10:11AM 42.0647 -72.6275 135° Southeast 180 207 6,000 -360 Descending Boston Center
10:12AM 42.0189 -72.5967 153° Southeast 182 209 5,700 -420 Descending Boston Center
10:13AM 41.9689 -72.5881 173° South 179 206 5,200 -360 Descending Boston Center
10:15AM 41.9125 -72.5850 178° South 167 192 5,000 -120 Descending Boston Center
10:16AM 41.8689 -72.5794 175° South 162 186 5,000 -240 Level Boston Center
10:17AM 41.8208 -72.5739 175° South 171 197 4,600 -420 Descending Boston Center
10:17AM 41.7772 -72.5681 174° South 173 199 4,200 -540 Descending Boston Center
10:18AM 41.7356 -72.5764 188° South 144 166 3,600 -660 Descending Boston Center
10:19AM 41.7042 -72.5875 195° South 128 147 2,900 -840 Descending Boston Center
10:20AM 41.6814 -72.6153 222° Southwest 121 139 1,900 -840 Descending Boston Center
10:21AM 41.6833 -72.6542 274° West 106 122 1,300 -720 Descending Boston Center
10:22AM 41.7083 -72.6597 351° North 97 112 600 -720 Descending Boston Center
10:24AM 41.7333 -72.6333 312° West  Level FlightAware Approximate
10:31AM 41.7367 -72.6494 312° West  Level Estimated